Time;durP1;ratioP1;P1;durP2;ratioP2;P2;SDS_P1;SDS_P2;PMS_P1;PMS_P2;Temp;Humidity;BMP_temperature;BMP_pressure;BME280_temperature;BME280_humidity;BME280_pressure;Samples;Min_cycle;Max_cycle;Signal;HPM_P1;HPM_P2
2023/06/24 00:00:55;;;;;;;12.75;7.03;;;;;;;14.47;100.00;101712.28;4966057;28;20787;-73
2023/06/24 00:03:21;;;;;;;17.30;7.80;;;;;;;14.41;100.00;101725.53;4966183;28;20023;-73
2023/06/24 00:05:49;;;;;;;12.67;6.70;;;;;;;14.38;100.00;101729.38;4966218;28;20038;-73
2023/06/24 00:08:19;;;;;;;9.10;7.22;;;;;;;14.29;100.00;101723.13;4966339;28;20026;-73
2023/06/24 00:10:46;;;;;;;14.25;7.18;;;;;;;14.28;100.00;101753.69;4966394;28;20912;-72
2023/06/24 00:13:12;;;;;;;11.75;6.95;;;;;;;14.27;100.00;101752.00;4966002;28;20050;-72
2023/06/24 00:15:42;;;;;;;11.27;7.43;;;;;;;14.29;100.00;101752.69;4966211;28;20045;-73
2023/06/24 00:18:09;;;;;;;15.32;7.80;;;;;;;14.27;100.00;101741.25;4966338;28;20114;-72
2023/06/24 00:20:34;;;;;;;16.17;8.40;;;;;;;14.24;100.00;101740.75;4978206;28;20445;-73
2023/06/24 00:23:00;;;;;;;14.50;7.07;;;;;;;14.20;100.00;101734.03;4965892;28;20038;-72
2023/06/24 00:25:25;;;;;;;10.43;7.27;;;;;;;14.18;100.00;101736.84;4956775;28;20762;-72
2023/06/24 00:27:50;;;;;;;15.83;8.87;;;;;;;14.06;100.00;101728.25;4966826;28;20501;-72
2023/06/24 00:30:16;;;;;;;9.90;7.30;;;;;;;14.11;100.00;101741.19;4981176;28;20030;-72
2023/06/24 00:32:44;;;;;;;9.80;7.13;;;;;;;14.12;100.00;101742.91;4968105;28;20035;-72
2023/06/24 00:35:12;;;;;;;17.85;8.55;;;;;;;14.01;100.00;101729.75;4969033;28;20057;-72
2023/06/24 00:37:37;;;;;;;13.77;7.95;;;;;;;14.03;100.00;101741.19;4979061;28;20046;-72
2023/06/24 00:40:04;;;;;;;11.23;7.57;;;;;;;14.01;100.00;101752.06;4967036;28;20037;-73
2023/06/24 00:42:31;;;;;;;15.07;9.50;;;;;;;14.04;100.00;101748.22;4973131;28;20050;-72
2023/06/24 00:44:56;;;;;;;12.10;7.82;;;;;;;14.02;100.00;101745.69;4980936;28;20114;-72
2023/06/24 00:47:23;;;;;;;12.32;8.35;;;;;;;14.04;100.00;101740.16;4968412;28;20034;-73
2023/06/24 00:49:49;;;;;;;15.60;9.05;;;;;;;13.95;100.00;101741.97;4964880;28;20886;-72
2023/06/24 00:52:15;;;;;;;18.08;9.00;;;;;;;13.96;100.00;101756.25;4979566;28;20049;-72
2023/06/24 00:54:43;;;;;;;10.90;7.68;;;;;;;14.01;100.00;101757.44;4964196;28;20117;-72
2023/06/24 00:57:10;;;;;;;14.43;7.83;;;;;;;13.98;100.00;101757.78;4953963;28;20562;-73
2023/06/24 00:59:37;;;;;;;14.80;8.63;;;;;;;13.93;100.00;101760.94;4968293;28;20027;-73
2023/06/24 01:02:04;;;;;;;18.75;9.32;;;;;;;13.85;100.00;101758.19;4969299;28;21406;-73
2023/06/24 01:04:33;;;;;;;17.33;8.88;;;;;;;13.79;100.00;101758.84;4981460;28;20023;-73
2023/06/24 01:07:00;;;;;;;;;;;;;;;13.73;100.00;101759.47;4984460;28;20207;-73
2023/06/24 01:09:25;;;;;;;17.38;9.18;;;;;;;13.64;100.00;101755.03;4967843;28;19930;-72
2023/06/24 01:11:51;;;;;;;18.58;8.77;;;;;;;13.65;100.00;101770.13;4974833;28;20062;-73
2023/06/24 01:14:19;;;;;;;14.85;8.85;;;;;;;13.69;100.00;101779.56;4969173;28;20489;-73
2023/06/24 01:16:57;;;;;;;14.02;9.32;;;;;;;13.58;100.00;101771.75;4982567;28;20046;-73
2023/06/24 01:20:04;;;;;;;16.88;8.63;;;;;;;13.58;100.00;101793.22;4969460;28;20061;-73
2023/06/24 01:23:31;;;;;;;16.65;8.50;;;;;;;13.58;100.00;101801.28;4971788;28;20038;-73
2023/06/24 01:26:22;;;;;;;17.00;8.73;;;;;;;13.66;100.00;101820.13;4949012;28;20039;-73
2023/06/24 01:29:25;;;;;;;16.42;9.85;;;;;;;13.65;100.00;101811.25;4928937;29;20098;-73
2023/06/24 01:32:04;;;;;;;21.60;9.82;;;;;;;13.61;100.00;101814.41;4928604;28;20386;-73
2023/06/24 01:34:37;;;;;;;17.13;9.25;;;;;;;13.58;100.00;101814.69;4923156;29;20035;-73
2023/06/24 01:37:38;;;;;;;16.48;9.38;;;;;;;13.60;100.00;101824.31;4961363;28;20051;-73
2023/06/24 01:40:26;;;;;;;14.73;9.23;;;;;;;13.52;100.00;101822.38;4959486;28;20037;-72
2023/06/24 01:42:53;;;;;;;15.27;9.93;;;;;;;13.50;100.00;101826.22;4983218;28;20061;-73
2023/06/24 01:45:23;;;;;;;14.25;8.88;;;;;;;13.53;100.00;101828.56;4955588;28;20653;-73
2023/06/24 01:47:59;;;;;;;15.32;8.88;;;;;;;13.51;100.00;101828.75;4968483;28;20046;-73
2023/06/24 01:50:25;;;;;;;15.00;9.35;;;;;;;13.54;100.00;101824.06;4963989;28;20038;-73
2023/06/24 01:52:52;;;;;;;;;;;;;;;13.48;100.00;101826.34;4969179;28;20031;-73
2023/06/24 01:55:20;;;;;;;19.52;11.00;;;;;;;13.54;100.00;101834.81;4955038;28;19921;-73
2023/06/24 01:57:49;;;;;;;16.80;10.98;;;;;;;13.55;100.00;101836.47;4951018;28;20030;-73
2023/06/24 02:00:16;;;;;;;18.83;9.57;;;;;;;13.56;100.00;101851.59;4971096;28;20052;-73
2023/06/24 02:02:49;;;;;;;25.30;10.88;;;;;;;13.57;100.00;101847.91;4967161;28;20641;-73
2023/06/24 02:05:17;;;;;;;19.05;10.05;;;;;;;13.52;100.00;101843.84;4983450;28;20061;-72
2023/06/24 02:07:43;;;;;;;19.35;10.93;;;;;;;13.50;100.00;101843.16;4982661;28;20026;-73
2023/06/24 02:10:09;;;;;;;18.63;9.82;;;;;;;13.46;100.00;101836.44;4974147;28;20149;-73
2023/06/24 02:12:35;;;;;;;;;;;;;;;13.41;100.00;101845.91;4963878;28;20035;-72
2023/06/24 02:15:01;;;;;;;;;;;;;;;13.39;100.00;101848.78;4983272;28;20348;-73
2023/06/24 02:17:29;;;;;;;17.10;10.50;;;;;;;13.31;100.00;101835.28;4983138;28;20062;-73
2023/06/24 02:19:56;;;;;;;20.77;11.18;;;;;;;13.36;100.00;101843.69;4966838;28;20042;-73
2023/06/24 02:22:22;;;;;;;17.15;10.45;;;;;;;13.28;100.00;101841.78;4954860;28;20037;-73
2023/06/24 02:24:50;;;;;;;19.17;11.05;;;;;;;13.36;100.00;101848.22;4966270;28;20069;-73
2023/06/24 02:27:17;;;;;;;18.55;11.07;;;;;;;13.33;100.00;101849.38;4969790;28;20092;-73
2023/06/24 02:29:42;;;;;;;20.95;10.63;;;;;;;13.24;100.00;101839.53;4966573;28;20066;-73
2023/06/24 02:32:09;;;;;;;18.45;10.52;;;;;;;13.21;100.00;101843.38;4958398;28;20061;-73
2023/06/24 02:34:34;;;;;;;18.92;11.13;;;;;;;13.22;100.00;101850.41;4951261;28;20145;-73
2023/06/24 02:36:59;;;;;;;17.20;9.90;;;;;;;13.23;100.00;101853.97;4954350;28;20456;-73
2023/06/24 02:39:25;;;;;;;18.53;9.80;;;;;;;13.24;100.00;101855.63;4966711;28;20039;-73
2023/06/24 02:41:50;;;;;;;18.57;10.90;;;;;;;13.22;100.00;101861.13;4977905;28;20027;-73
2023/06/24 02:44:16;;;;;;;18.13;11.53;;;;;;;13.20;100.00;101857.75;4966122;28;20484;-73
2023/06/24 02:46:44;;;;;;;19.70;11.40;;;;;;;13.12;100.00;101857.69;4967428;28;20049;-73
2023/06/24 02:49:13;;;;;;;18.52;11.02;;;;;;;13.13;100.00;101869.25;4966366;28;20045;-73
2023/06/24 02:51:39;;;;;;;22.17;11.63;;;;;;;13.15;100.00;101875.31;4956543;28;20031;-73
2023/06/24 02:54:05;;;;;;;18.15;11.38;;;;;;;13.13;100.00;101858.53;4966971;28;20033;-73
2023/06/24 02:56:57;;;;;;;15.25;9.98;;;;;;;13.12;100.00;101870.25;4967193;28;20251;-73
2023/06/24 02:59:30;;;;;;;20.38;10.85;;;;;;;13.09;100.00;101864.19;4982282;28;20540;-72
2023/06/24 03:01:58;;;;;;;14.57;9.65;;;;;;;13.01;100.00;101866.78;4975947;28;20042;-73
2023/06/24 03:04:25;;;;;;;19.95;11.18;;;;;;;13.06;100.00;101875.25;4981840;28;20963;-72
2023/06/24 03:06:50;;;;;;;;;;;;;;;13.05;100.00;101876.22;4968492;28;20045;-72
2023/06/24 03:09:16;;;;;;;;;;;;;;;13.05;100.00;101886.09;4965401;28;19914;-73
2023/06/24 03:11:43;;;;;;;19.15;10.30;;;;;;;12.96;100.00;101882.47;4981828;28;19936;-73
2023/06/24 03:14:11;;;;;;;14.73;10.43;;;;;;;12.97;100.00;101877.97;4965785;28;20030;-72
2023/06/24 03:16:41;;;;;;;21.83;10.98;;;;;;;13.01;100.00;101890.91;4965603;28;20038;-72
2023/06/24 03:19:11;;;;;;;16.92;9.38;;;;;;;12.98;100.00;101882.34;4964896;28;20037;-72
2023/06/24 03:21:37;;;;;;;15.80;10.90;;;;;;;12.97;100.00;101873.47;4967999;28;20069;-73
2023/06/24 03:24:20;;;;;;;18.80;11.10;;;;;;;13.00;100.00;101875.00;4958814;28;20496;-73
2023/06/24 03:26:50;;;;;;;20.15;10.60;;;;;;;12.93;100.00;101872.06;4981450;28;20097;-73
2023/06/24 03:29:16;;;;;;;17.60;9.90;;;;;;;12.96;100.00;101877.13;4965567;28;20039;-72
2023/06/24 03:31:51;;;;;;;17.25;10.32;;;;;;;12.92;100.00;101875.72;4965269;28;20033;-73
2023/06/24 03:34:20;;;;;;;16.60;9.27;;;;;;;12.91;100.00;101870.53;4965195;28;20049;-73
2023/06/24 03:36:45;;;;;;;17.63;10.33;;;;;;;12.93;100.00;101874.75;4969609;28;20110;-73
2023/06/24 03:39:12;;;;;;;16.65;10.65;;;;;;;12.95;100.00;101883.50;4981528;28;20034;-72
2023/06/24 03:41:38;;;;;;;18.03;11.30;;;;;;;12.99;100.00;101884.84;4980956;28;20034;-73
2023/06/24 03:44:04;;;;;;;20.08;12.38;;;;;;;13.03;100.00;101886.25;4966396;28;20032;-73
2023/06/24 03:46:33;;;;;;;20.48;11.25;;;;;;;13.10;100.00;101886.47;4965221;28;20097;-72
2023/06/24 03:49:00;;;;;;;18.55;10.80;;;;;;;13.16;100.00;101885.91;4959278;28;20093;-72
2023/06/24 03:51:26;;;;;;;21.70;12.02;;;;;;;13.26;100.00;101888.50;4965235;28;20038;-73
2023/06/24 03:53:52;;;;;;;18.47;10.73;;;;;;;13.33;100.00;101886.94;4982691;28;20488;-73
2023/06/24 03:56:17;;;;;;;18.77;10.47;;;;;;;13.37;100.00;101891.00;4970499;28;20438;-73
2023/06/24 03:58:43;;;;;;;20.50;11.23;;;;;;;13.42;100.00;101888.69;4951500;28;20034;-73
2023/06/24 04:01:09;;;;;;;19.47;11.63;;;;;;;13.55;100.00;101892.81;4977514;28;20300;-73
2023/06/24 04:03:34;;;;;;;;;;;;;;;13.62;100.00;101893.88;4965729;28;20046;-72
2023/06/24 04:06:01;;;;;;;;;;;;;;;13.71;100.00;101885.75;4981603;28;19921;-73
2023/06/24 04:08:30;;;;;;;21.13;9.55;;;;;;;13.76;100.00;101873.72;4981390;28;19917;-73
2023/06/24 04:11:03;;;;;;;14.55;9.95;;;;;;;13.80;100.00;101873.25;4966387;28;20027;-73
2023/06/24 04:13:29;;;;;;;19.80;11.25;;;;;;;13.87;100.00;101874.31;4964096;28;20097;-73
2023/06/24 04:15:55;;;;;;;15.75;10.50;;;;;;;14.04;100.00;101879.78;4964578;28;20081;-73
2023/06/24 04:18:20;;;;;;;16.80;9.43;;;;;;;14.06;100.00;101867.03;4986133;28;20038;-72
2023/06/24 04:20:46;;;;;;;16.57;10.23;;;;;;;14.00;100.00;101847.06;4984324;28;20038;-73
2023/06/24 04:23:14;;;;;;;18.10;10.35;;;;;;;14.11;100.00;101843.25;4952937;28;20093;-73
2023/06/24 04:25:40;;;;;;;17.58;9.30;;;;;;;14.18;100.00;101833.53;4964959;28;20039;-72
2023/06/24 04:28:05;;;;;;;14.75;9.15;;;;;;;14.32;100.00;101840.16;4965101;28;20476;-72
2023/06/24 04:30:32;;;;;;;16.85;10.07;;;;;;;14.47;100.00;101843.94;4982724;28;20035;-74
2023/06/24 04:32:57;;;;;;;14.73;8.45;;;;;;;14.54;100.00;101828.06;4970597;28;20411;-72
2023/06/24 04:35:24;;;;;;;13.37;8.80;;;;;;;14.52;100.00;101812.03;4958575;28;20043;-72
2023/06/24 04:37:50;;;;;;;16.45;9.35;;;;;;;14.60;100.00;101802.34;4989486;28;20117;-72
2023/06/24 04:40:19;;;;;;;16.30;8.77;;;;;;;14.74;100.00;101802.56;4960816;28;20610;-73
2023/06/24 04:42:45;;;;;;;15.07;8.93;;;;;;;14.81;100.00;101789.31;4995175;28;20026;-73
2023/06/24 04:45:11;;;;;;;;;;;;;;;15.04;100.00;101788.69;4973273;28;20502;-72
2023/06/24 04:47:36;;;;;;;;;;;;;;;15.22;100.00;101778.63;4969084;28;20008;-72
2023/06/24 04:50:02;;;;;;;15.00;7.73;;;;;;;15.28;100.00;101759.09;4982566;28;19922;-72
2023/06/24 04:52:28;;;;;;;14.55;8.57;;;;;;;15.37;100.00;101755.38;4970252;28;20038;-73
2023/06/24 04:54:53;;;;;;;13.77;6.63;;;;;;;15.48;100.00;101756.91;4985672;28;20048;-73
2023/06/24 04:57:33;;;;;;;16.57;8.33;;;;;;;15.55;100.00;101736.38;4969915;28;20451;-72
2023/06/24 04:59:58;;;;;;;14.43;7.07;;;;;;;15.68;100.00;101724.22;4970606;28;20058;-73
2023/06/24 05:02:24;;;;;;;18.20;8.20;;;;;;;15.71;100.00;101713.13;4969284;28;20462;-72
2023/06/24 05:04:50;;;;;;;9.80;7.07;;;;;;;15.83;100.00;101717.16;4969344;28;20034;-72
2023/06/24 05:07:16;;;;;;;;;;;;;;;15.75;100.00;101682.16;4973343;28;20498;-72
2023/06/24 05:09:42;;;;;;;15.73;7.60;;;;;;;15.64;100.00;101683.38;4972566;28;19918;-73
2023/06/24 05:12:08;;;;;;;11.07;7.13;;;;;;;15.67;100.00;101684.88;4972157;28;20022;-74
2023/06/24 05:14:34;;;;;;;13.55;7.45;;;;;;;15.54;100.00;101688.09;4967817;28;20030;-73
2023/06/24 05:16:59;;;;;;;18.42;9.43;;;;;;;15.58;100.00;101671.41;4968949;28;20086;-73
2023/06/24 05:19:25;;;;;;;11.17;6.63;;;;;;;15.61;100.00;101665.69;4981550;28;20395;-73
2023/06/24 05:21:51;;;;;;;11.15;6.00;;;;;;;16.08;100.00;101669.38;4970821;28;20054;-73
2023/06/24 05:24:16;;;;;;;11.87;6.17;;;;;;;16.37;100.00;101624.78;4971725;28;20827;-73
2023/06/24 05:26:41;;;;;;;11.67;6.67;;;;;;;16.80;100.00;101588.22;4968653;28;20042;-73
2023/06/24 05:29:07;;;;;;;14.10;6.30;;;;;;;16.92;100.00;101509.56;4969545;28;20037;-73
2023/06/24 05:31:32;;;;;;;12.73;6.50;;;;;;;16.80;100.00;101456.06;4968885;28;20402;-73
2023/06/24 05:33:57;;;;;;;9.10;6.13;;;;;;;17.30;100.00;101497.63;4967193;28;20082;-73
2023/06/24 05:36:23;;;;;;;11.67;5.57;;;;;;;17.92;100.00;101481.94;4968425;28;20037;-73
2023/06/24 05:38:48;;;;;;;8.63;5.50;;;;;;;18.68;100.00;101416.38;4967428;28;20138;-74
2023/06/24 05:41:14;;;;;;;10.00;5.43;;;;;;;19.26;100.00;101235.50;4970330;28;20765;-72
2023/06/24 05:43:39;;;;;;;9.65;5.45;;;;;;;19.22;100.00;101058.28;4966628;28;20290;-74
2023/06/24 05:46:05;;;;;;;11.20;4.87;;;;;;;18.97;100.00;101055.47;4978796;28;20077;-73
2023/06/24 05:48:30;;;;;;;9.67;5.17;;;;;;;19.46;100.00;101142.63;4975474;28;20448;-74
2023/06/24 05:50:55;;;;;;;10.37;5.33;;;;;;;19.93;100.00;101027.63;4966658;28;20063;-74
2023/06/24 05:53:21;;;;;;;8.10;4.70;;;;;;;19.39;100.00;100972.06;4970324;28;20122;-74
2023/06/24 05:55:46;;;;;;;10.07;5.10;;;;;;;19.39;100.00;101143.44;4968566;28;20081;-73
2023/06/24 05:58:12;;;;;;;15.80;6.73;;;;;;;18.85;100.00;101190.50;4981811;28;20035;-74
2023/06/24 06:00:37;;;;;;;7.70;5.27;;;;;;;18.98;100.00;101239.22;4979306;28;20030;-73
2023/06/24 06:03:02;;;;;;;12.80;5.67;;;;;;;18.68;100.00;101202.72;4967698;28;20039;-73
2023/06/24 06:05:28;;;;;;;11.53;5.93;;;;;;;18.72;100.00;101339.22;4968039;28;20030;-73
2023/06/24 06:07:53;;;;;;;15.53;5.63;;;;;;;18.66;100.00;101397.66;4967938;28;20039;-74
2023/06/24 06:10:19;;;;;;;12.10;5.65;;;;;;;18.33;100.00;101400.13;4975715;28;20031;-72
2023/06/24 06:12:45;;;;;;;10.73;5.85;;;;;;;18.35;100.00;101485.44;4968936;28;20065;-73
2023/06/24 06:15:10;;;;;;;9.23;5.72;;;;;;;18.36;100.00;101445.72;4967868;28;20369;-73
2023/06/24 06:17:36;;;;;;;10.40;5.40;;;;;;;18.17;100.00;101446.38;4952871;28;20503;-72
2023/06/24 06:20:01;;;;;;;10.73;5.77;;;;;;;17.91;100.00;101426.22;4970388;28;20491;-74
2023/06/24 06:22:27;;;;;;;7.47;4.75;;;;;;;18.13;100.00;101571.09;4967905;28;20043;-74
2023/06/24 06:24:52;;;;;;;11.10;5.90;;;;;;;18.22;100.00;101547.47;4966344;28;20039;-74
2023/06/24 06:27:17;;;;;;;8.67;5.77;;;;;;;18.95;100.00;101628.41;4979331;28;20076;-74
2023/06/24 06:29:43;;;;;;;9.27;6.23;;;;;;;19.85;100.00;101363.00;4971212;28;20879;-74
2023/06/24 06:32:08;;;;;;;8.20;5.23;;;;;;;20.72;100.00;101288.56;4982575;28;20423;-74
2023/06/24 06:34:34;;;;;;;8.25;5.30;;;;;;;21.32;100.00;101182.28;4966464;28;20046;-73
2023/06/24 06:36:59;;;;;;;13.63;5.27;;;;;;;22.01;100.00;101073.44;4972984;28;20062;-73
2023/06/24 06:39:26;;;;;;;8.13;5.97;;;;;;;21.29;100.00;100799.84;4967569;28;20518;-73
2023/06/24 06:41:51;;;;;;;9.38;5.18;;;;;;;22.31;99.33;100889.38;4966237;28;20049;-74
2023/06/24 06:44:17;;;;;;;11.20;5.17;;;;;;;22.52;96.29;100878.94;4969316;28;20030;-74
2023/06/24 06:46:42;;;;;;;7.23;4.57;;;;;;;23.14;94.87;100998.16;4965852;28;20130;-74
2023/06/24 06:49:07;;;;;;;10.03;4.73;;;;;;;22.66;91.42;100779.66;4965164;28;20030;-75
2023/06/24 06:51:33;;;;;;;8.63;5.30;;;;;;;22.46;93.10;100917.97;4967145;28;20097;-74
2023/06/24 06:53:59;;;;;;;10.63;5.10;;;;;;;22.02;92.32;100846.78;4966623;28;20293;-73
2023/06/24 06:56:25;;;;;;;9.83;5.20;;;;;;;22.89;91.37;101014.72;4962193;28;20042;-74
2023/06/24 06:58:51;;;;;;;8.23;4.70;;;;;;;23.47;87.73;100899.38;4967272;28;20282;-75
2023/06/24 07:01:17;;;;;;;;;;;;;;;23.65;86.04;100901.09;4966263;28;20039;-75
2023/06/24 07:03:42;;;;;;;7.25;4.22;;;;;;;24.29;83.94;100929.97;4966572;28;19958;-73
2023/06/24 07:06:08;;;;;;;7.73;3.93;;;;;;;24.91;79.61;100715.94;4966536;28;20043;-75
2023/06/24 07:08:34;;;;;;;8.70;4.50;;;;;;;24.08;79.46;100623.38;4965616;28;20035;-75
2023/06/24 07:10:59;;;;;;;;;;;;;;;23.80;78.60;100581.63;4971577;28;20762;-75
2023/06/24 07:13:24;;;;;;;8.02;4.68;;;;;;;22.31;81.47;100636.47;4980317;28;19910;-75
2023/06/24 07:15:50;;;;;;;8.13;4.50;;;;;;;22.32;84.18;100890.19;4963784;28;20548;-74
2023/06/24 07:18:15;;;;;;;6.83;5.23;;;;;;;22.19;84.39;100890.38;4980454;28;20030;-75
2023/06/24 07:20:40;;;;;;;9.13;5.00;;;;;;;22.89;85.22;101105.38;4965484;28;20039;-74
2023/06/24 07:23:06;;;;;;;8.97;4.70;;;;;;;22.49;83.66;100912.88;4965419;28;20038;-74
2023/06/24 07:25:31;;;;;;;6.97;3.87;;;;;;;22.96;82.80;100967.25;4966487;28;20037;-74
2023/06/24 07:27:57;;;;;;;6.38;4.00;;;;;;;22.48;83.15;100905.78;4967613;28;20296;-74
2023/06/24 07:30:22;;;;;;;8.67;4.90;;;;;;;22.24;84.47;101004.75;4965499;28;20640;-75
2023/06/24 07:32:47;;;;;;;12.10;4.90;;;;;;;22.06;85.64;101092.63;4966034;28;20039;-74
2023/06/24 07:35:13;;;;;;;11.13;5.07;;;;;;;22.05;85.37;101014.84;4966274;28;20027;-74
2023/06/24 07:37:38;;;;;;;8.82;4.53;;;;;;;20.96;89.84;101107.03;4965398;28;20085;-74
2023/06/24 07:40:05;;;;;;;8.03;4.73;;;;;;;21.71;90.34;101337.84;4967423;28;20421;-72
2023/06/24 07:42:31;;;;;;;7.15;4.53;;;;;;;21.12;89.85;101135.47;4966309;28;20370;-74
2023/06/24 07:44:56;;;;;;;9.70;4.93;;;;;;;21.05;90.19;101171.66;4964929;28;20640;-74
2023/06/24 07:47:22;;;;;;;8.43;4.90;;;;;;;21.24;90.39;101224.13;4969632;28;20049;-74
2023/06/24 07:49:47;;;;;;;9.63;4.73;;;;;;;21.54;89.86;101241.66;4966288;28;20395;-75
2023/06/24 07:52:13;;;;;;;7.80;4.47;;;;;;;21.39;90.44;101250.94;4965093;28;20121;-75
2023/06/24 07:54:38;;;;;;;7.68;6.15;;;;;;;21.32;91.27;101257.47;4965122;28;20038;-73
2023/06/24 07:57:03;;;;;;;8.77;4.90;;;;;;;21.20;92.11;101301.63;4965280;28;20057;-73
2023/06/24 07:59:29;;;;;;;6.93;4.95;;;;;;;21.66;92.98;101447.22;4966815;28;20030;-74
2023/06/24 08:01:54;;;;;;;7.73;4.60;;;;;;;20.59;93.12;101183.66;4983038;28;20050;-73
2023/06/24 08:04:20;;;;;;;9.57;4.70;;;;;;;21.18;96.92;101539.13;4986690;28;20281;-73
2023/06/24 08:06:45;;;;;;;10.30;4.73;;;;;;;22.48;91.38;101458.06;4975645;28;20361;-74
2023/06/24 08:09:11;;;;;;;7.85;4.13;;;;;;;23.55;86.49;101315.94;4984767;28;20059;-73
2023/06/24 08:11:36;;;;;;;7.70;4.60;;;;;;;22.46;84.83;101010.47;4975976;28;20035;-73
2023/06/24 08:14:02;;;;;;;5.77;4.47;;;;;;;22.57;83.51;100984.31;4981351;28;20039;-74
2023/06/24 08:16:27;;;;;;;6.25;4.35;;;;;;;21.65;86.72;101054.25;4972718;28;20136;-73
2023/06/24 08:18:53;;;;;;;7.90;4.37;;;;;;;21.54;86.34;101008.03;4972805;28;20027;-73
2023/06/24 08:21:18;;;;;;;6.05;3.55;;;;;;;21.49;86.25;101022.28;4988095;28;20133;-73
2023/06/24 08:23:44;;;;;;;8.23;3.90;;;;;;;21.54;84.56;100921.94;4972632;28;20030;-74
2023/06/24 08:26:09;;;;;;;5.10;4.00;;;;;;;21.35;87.11;101111.22;4972876;28;20034;-73
2023/06/24 08:28:35;;;;;;;8.10;3.90;;;;;;;21.02;89.56;101218.22;4972870;28;20301;-73
2023/06/24 08:31:00;;;;;;;7.88;4.60;;;;;;;21.59;87.18;101172.03;4979722;28;20031;-73
2023/06/24 08:33:26;;;;;;;10.90;4.78;;;;;;;22.99;84.05;101240.13;4971383;28;20046;-73
2023/06/24 08:35:51;;;;;;;5.80;3.70;;;;;;;23.92;79.88;101108.50;4972520;28;20030;-73
2023/06/24 08:38:17;;;;;;;4.63;3.80;;;;;;;23.87;74.97;100715.81;4972613;28;20062;-73
2023/06/24 08:40:43;;;;;;;4.00;3.20;;;;;;;24.24;75.41;100895.25;4972717;28;20369;-73
2023/06/24 08:43:09;;;;;;;5.63;3.50;;;;;;;24.20;74.26;100828.63;4972487;28;20046;-74
2023/06/24 08:45:35;;;;;;;6.22;3.83;;;;;;;23.46;75.64;100843.25;4987343;28;20085;-73
2023/06/24 08:48:02;;;;;;;7.60;4.25;;;;;;;23.77;75.29;100969.19;4986567;28;20053;-73
2023/06/24 08:50:32;;;;;;;8.00;4.32;;;;;;;21.95;72.35;100166.59;4972774;28;20472;-73
2023/06/24 08:53:02;;;;;;;5.82;3.90;;;;;;;22.14;78.05;100918.28;4987081;28;20372;-73
2023/06/24 08:55:31;;;;;;;7.22;4.13;;;;;;;23.39;76.35;101077.69;4984079;28;20035;-73
2023/06/24 08:57:56;;;;;;;7.43;4.03;;;;;;;23.89;72.10;100761.94;4971094;28;20019;-73
2023/06/24 09:00:22;;;;;;;6.18;3.67;;;;;;;24.64;72.39;100989.75;4987612;28;20038;-74
2023/06/24 09:02:47;;;;;;;3.78;3.08;;;;;;;25.67;68.52;100858.75;4972107;28;20131;-74
2023/06/24 09:05:13;;;;;;;7.72;3.55;;;;;;;25.39;67.88;100709.56;4972255;28;20038;-74
2023/06/24 09:07:38;;;;;;;6.83;3.80;;;;;;;26.11;65.65;100715.50;4986609;28;20628;-73
2023/06/24 09:10:04;;;;;;;4.25;3.60;;;;;;;26.49;64.74;100755.31;4975266;28;20290;-73
2023/06/24 09:12:32;;;;;;;5.28;3.70;;;;;;;26.13;62.36;100417.03;4973407;28;20023;-74
2023/06/24 09:14:58;;;;;;;9.48;3.92;;;;;;;26.48;62.55;100578.50;4979950;28;20042;-74
2023/06/24 09:17:23;;;;;;;4.55;3.05;;;;;;;26.73;63.04;100694.63;4983394;28;20030;-75
2023/06/24 09:19:49;;;;;;;7.25;3.97;;;;;;;26.25;60.44;100264.38;4963408;28;20043;-74
2023/06/24 09:22:18;;;;;;;;;;;;;;;26.47;61.05;100499.38;4984431;28;20030;-74
2023/06/24 09:24:48;;;;;;;5.25;3.33;;;;;;;26.32;59.98;100338.75;4968788;28;20017;-74
2023/06/24 09:27:15;;;;;;;5.70;3.45;;;;;;;24.96;61.67;100268.16;4975373;28;20906;-74
2023/06/24 09:29:42;;;;;;;5.30;2.95;;;;;;;25.63;61.25;100463.97;4974633;28;20039;-74
2023/06/24 09:32:08;;;;;;;8.48;3.17;;;;;;;25.56;60.35;100315.81;4975567;28;20470;-74
2023/06/24 09:34:34;;;;;;;5.88;3.55;;;;;;;25.12;60.89;100290.88;4973480;28;20053;-73
2023/06/24 09:37:00;;;;;;;;;;;;;;;26.68;60.40;100700.09;4974802;28;20035;-74
2023/06/24 09:39:30;;;;;;;5.18;3.80;;;;;;;25.15;59.67;100115.56;4969468;28;19918;-73
2023/06/24 09:42:00;;;;;;;7.07;3.50;;;;;;;25.65;60.24;100357.09;4980294;28;20049;-74
2023/06/24 09:44:27;;;;;;;5.25;3.22;;;;;;;25.53;59.43;100239.84;4972651;28;20043;-74
2023/06/24 09:46:53;;;;;;;5.60;3.33;;;;;;;25.60;58.20;100106.47;4968180;28;20034;-74
2023/06/24 09:49:19;;;;;;;;;;;;;;;25.79;56.52;99997.31;4969046;28;20042;-75
2023/06/24 09:51:46;;;;;;;5.32;3.90;;;;;;;25.13;56.01;99714.34;4967359;28;20241;-74
2023/06/24 09:54:14;;;;;;;3.65;3.15;;;;;;;25.53;56.94;100075.88;4966580;28;20063;-74
2023/06/24 09:56:52;;;;;;;6.45;3.58;;;;;;;26.07;56.34;100129.81;4969193;28;20373;-74
2023/06/24 09:59:22;;;;;;;4.03;2.75;;;;;;;26.50;54.68;100111.00;4970729;28;20118;-74
2023/06/24 10:01:51;;;;;;;3.22;2.92;;;;;;;25.81;54.13;99874.81;4967319;28;20035;-74
2023/06/24 10:04:19;;;;;;;4.50;3.03;;;;;;;26.43;51.72;99718.34;4968203;28;20033;-74
2023/06/24 10:06:45;;;;;;;5.93;3.10;;;;;;;27.53;52.07;100132.91;4983074;28;20051;-74
2023/06/24 10:09:16;;;;;;;4.40;3.33;;;;;;;27.07;50.57;99779.94;4971476;28;20046;-74
2023/06/24 10:11:45;;;;;;;5.97;2.60;;;;;;;26.73;51.79;99956.16;4966853;28;20042;-74
2023/06/24 10:14:11;;;;;;;5.38;3.25;;;;;;;27.06;52.02;100074.13;4971734;28;20030;-74
2023/06/24 10:16:36;;;;;;;6.88;3.10;;;;;;;26.66;50.73;99701.09;4987312;28;20173;-75
2023/06/24 10:19:03;;;;;;;6.67;2.90;;;;;;;26.85;50.92;99823.50;4968050;28;20031;-74
2023/06/24 10:21:47;;;;;;;6.05;2.85;;;;;;;27.16;52.15;100178.16;4982829;28;20282;-74
2023/06/24 10:24:13;;;;;;;3.67;3.22;;;;;;;27.24;51.05;100020.56;4966042;28;20042;-74
2023/06/24 10:26:40;;;;;;;4.97;3.15;;;;;;;27.46;50.22;99959.72;4970025;28;20073;-74
2023/06/24 10:29:05;;;;;;;3.50;2.55;;;;;;;26.87;51.76;99989.13;4967533;28;20038;-75
2023/06/24 10:31:39;;;;;;;6.57;3.27;;;;;;;27.67;50.31;100042.50;4969602;28;20061;-74
2023/06/24 10:34:32;;;;;;;4.25;3.17;;;;;;;28.30;49.55;100068.84;4967149;28;20038;-74
2023/06/24 10:37:13;;;;;;;7.03;3.08;;;;;;;27.76;48.49;99795.88;4960805;28;20046;-75
2023/06/24 10:39:46;;;;;;;6.75;3.20;;;;;;;28.58;49.36;100165.91;4963955;28;20905;-74
2023/06/24 10:42:23;;;;;;;4.50;3.47;;;;;;;28.68;48.62;100081.75;4973546;28;20038;-74
2023/06/24 10:44:50;;;;;;;4.43;2.90;;;;;;;29.15;48.20;100171.41;4967242;28;20050;-74
2023/06/24 10:47:16;;;;;;;5.40;3.08;;;;;;;28.14;48.59;99793.06;4967713;28;20037;-74
2023/06/24 10:49:42;;;;;;;5.70;4.13;;;;;;;27.65;49.90;99937.00;4979568;28;20035;-74
2023/06/24 10:52:07;;;;;;;;;;;;;;;26.87;50.77;99767.34;4967755;28;20050;-75
2023/06/24 10:54:33;;;;;;;7.35;3.40;;;;;;;26.44;51.81;99815.75;4967579;28;20695;-74
2023/06/24 10:56:58;;;;;;;5.40;3.10;;;;;;;26.79;52.22;99992.53;4967121;28;20066;-74
2023/06/24 10:59:23;;;;;;;8.80;3.90;;;;;;;26.53;52.75;99979.03;4967272;28;20321;-75
2023/06/24 11:01:55;;;;;;;4.38;3.05;;;;;;;27.65;52.43;100309.88;4982057;28;20655;-75
2023/06/24 11:04:20;;;;;;;4.03;3.10;;;;;;;27.68;51.15;100090.78;4971115;28;20041;-74
2023/06/24 11:06:59;;;;;;;7.37;3.77;;;;;;;26.78;52.52;100034.69;4957071;28;20023;-74
2023/06/24 11:09:25;;;;;;;4.93;3.50;;;;;;;26.44;52.71;99919.75;4962832;28;20694;-74
2023/06/24 11:11:50;;;;;;;4.73;3.73;;;;;;;26.10;54.63;100142.94;4967012;28;20035;-74
2023/06/24 11:14:16;;;;;;;10.37;4.07;;;;;;;26.19;56.08;100350.28;4966439;28;20827;-74
2023/06/24 11:16:42;;;;;;;5.47;3.08;;;;;;;26.26;55.05;100194.84;4967009;28;20408;-74
2023/06/24 11:19:08;;;;;;;5.63;3.47;;;;;;;26.66;55.70;100432.03;4969330;28;20027;-74
2023/06/24 11:21:33;;;;;;;7.65;3.58;;;;;;;26.95;55.13;100384.84;4974997;28;20027;-74